Time;durP1;ratioP1;P1;durP2;ratioP2;P2;SDS_P1;SDS_P2;PMS_P1;PMS_P2;Temp;Humidity;BMP_temperature;BMP_pressure;BME280_temperature;BME280_humidity;BME280_pressure;Samples;Min_cycle;Max_cycle;Signal;HPM_P1;HPM_P2
2022/12/27 00:00:50;;;;;;;6.25;1.17;;;4.90;99.90;;;;;;5102793;27;20037;-69
2022/12/27 00:03:16;;;;;;;9.25;1.90;;;4.90;99.90;;;;;;5100692;28;20020;-69
2022/12/27 00:05:44;;;;;;;3.10;1.27;;;5.00;99.90;;;;;;5103920;27;20036;-70
2022/12/27 00:08:09;;;;;;;8.98;1.45;;;4.90;99.90;;;;;;5086597;28;20414;-69
2022/12/27 00:10:35;;;;;;;6.22;1.25;;;4.80;99.90;;;;;;5093944;28;20024;-69
2022/12/27 00:13:01;;;;;;;7.38;1.52;;;4.70;99.90;;;;;;5104546;27;20020;-69
2022/12/27 00:15:27;;;;;;;5.85;1.05;;;4.80;99.90;;;;;;5101434;28;20040;-68
2022/12/27 00:17:53;;;;;;;8.60;2.38;;;4.70;99.90;;;;;;5107170;27;20072;-68
2022/12/27 00:20:18;;;;;;;4.28;1.65;;;4.70;99.90;;;;;;5100512;28;20058;-69
2022/12/27 00:22:44;;;;;;;5.93;1.13;;;4.80;99.90;;;;;;5104547;27;20027;-68
2022/12/27 00:25:10;;;;;;;9.93;1.95;;;4.90;99.90;;;;;;5101566;27;20035;-69
2022/12/27 00:27:36;;;;;;;11.18;1.25;;;4.90;99.90;;;;;;5102219;28;20024;-69
2022/12/27 00:30:03;;;;;;;6.30;1.05;;;4.70;99.90;;;;;;5106621;27;20027;-69
2022/12/27 00:32:29;;;;;;;3.30;1.02;;;4.70;99.90;;;;;;5086695;28;20028;-70
2022/12/27 00:34:54;;;;;;;6.18;1.20;;;4.60;99.90;;;;;;5102577;28;20491;-68
2022/12/27 00:37:20;;;;;;;7.85;0.95;;;4.50;99.90;;;;;;5108116;27;20016;-68
2022/12/27 00:39:46;;;;;;;3.83;1.10;;;4.40;99.90;;;;;;5088600;28;20027;-69
2022/12/27 00:42:12;;;;;;;8.50;1.30;;;4.40;99.90;;;;;;5100962;28;20023;-69
2022/12/27 00:44:37;;;;;;;8.23;0.88;;;4.40;99.90;;;;;;5105360;28;20030;-69
2022/12/27 00:47:04;;;;;;;9.23;1.00;;;4.30;99.90;;;;;;5106809;28;20026;-69
2022/12/27 00:49:30;;;;;;;9.63;2.17;;;4.40;99.90;;;;;;5105649;27;20028;-69
2022/12/27 00:51:56;;;;;;;10.13;1.08;;;4.50;99.90;;;;;;5105272;28;20077;-69
2022/12/27 00:54:21;;;;;;;5.65;0.93;;;4.50;99.90;;;;;;5104938;28;20031;-70
2022/12/27 00:56:47;;;;;;;8.52;1.10;;;4.40;99.90;;;;;;5113128;27;20107;-69
2022/12/27 00:59:13;;;;;;;5.57;1.10;;;4.30;99.90;;;;;;5111541;28;20028;-68
2022/12/27 01:01:39;;;;;;;7.63;1.20;;;4.40;99.90;;;;;;5090199;28;20034;-67
2022/12/27 01:04:05;;;;;;;5.53;1.10;;;4.40;99.90;;;;;;5110212;28;20107;-69
2022/12/27 01:06:33;;;;;;;9.75;1.20;;;4.40;99.90;;;;;;5111046;28;20090;-69
2022/12/27 01:09:00;;;;;;;6.47;1.13;;;4.30;99.90;;;;;;5090548;28;20608;-67
2022/12/27 01:11:27;;;;;;;5.55;1.00;;;4.30;99.90;;;;;;5109346;28;20023;-68
2022/12/27 01:13:58;;;;;;;3.45;0.77;;;4.30;99.90;;;;;;5102203;28;20035;-68
2022/12/27 01:16:25;;;;;;;7.57;0.90;;;4.20;99.90;;;;;;5106476;28;20194;-70
2022/12/27 01:18:51;;;;;;;6.32;1.10;;;4.20;99.90;;;;;;5109363;28;20039;-68
2022/12/27 01:21:20;;;;;;;4.72;0.88;;;4.20;99.90;;;;;;5098434;28;20028;-68
2022/12/27 01:23:46;;;;;;;6.47;1.25;;;4.30;99.90;;;;;;5102066;28;20535;-68
2022/12/27 01:26:19;;;;;;;8.65;1.25;;;4.20;99.90;;;;;;5105678;28;20122;-67
2022/12/27 01:28:47;;;;;;;7.60;1.23;;;4.20;99.90;;;;;;5102076;28;20024;-68
2022/12/27 01:31:15;;;;;;;6.00;1.20;;;4.00;99.90;;;;;;5104189;28;20024;-68
2022/12/27 01:33:41;;;;;;;2.58;0.82;;;4.00;99.90;;;;;;5110024;27;20038;-68
2022/12/27 01:36:21;;;;;;;7.95;1.13;;;3.80;99.90;;;;;;5113906;27;20398;-69
2022/12/27 01:38:47;;;;;;;4.15;1.00;;;3.60;99.90;;;;;;5107931;27;20073;-67
2022/12/27 01:44:38;;;;;;;10.73;0.98;;;3.80;99.90;;;;;;5106031;28;20119;-67
2022/12/27 01:47:28;;;;;;;8.13;0.75;;;4.00;99.90;;;;;;5109390;28;20030;-68
2022/12/27 01:49:56;;;;;;;4.20;0.90;;;4.10;99.90;;;;;;5101281;28;20024;-69
2022/12/27 01:52:25;;;;;;;4.20;0.85;;;4.10;99.90;;;;;;5102155;28;20487;-68
2022/12/27 01:54:53;;;;;;;9.90;1.42;;;4.10;99.90;;;;;;5098203;28;20039;-69
2022/12/27 01:57:20;;;;;;;5.80;0.95;;;4.10;99.90;;;;;;5103138;28;20016;-68
2022/12/27 01:59:46;;;;;;;7.40;1.63;;;4.10;99.90;;;;;;5108666;28;20115;-68
2022/12/27 02:02:12;;;;;;;4.10;0.93;;;4.10;99.90;;;;;;5108862;27;20027;-68
2022/12/27 02:04:38;;;;;;;9.50;1.02;;;4.00;99.90;;;;;;5108578;28;20066;-69
2022/12/27 02:07:05;;;;;;;4.60;0.60;;;4.00;99.90;;;;;;5108088;27;20503;-69
2022/12/27 02:09:41;;;;;;;7.07;1.10;;;3.90;99.90;;;;;;5107568;27;20365;-69
2022/12/27 02:12:09;;;;;;;5.95;1.58;;;3.90;99.90;;;;;;5111144;27;20072;-67
2022/12/27 02:14:39;;;;;;;5.93;0.85;;;3.80;99.90;;;;;;5118992;27;20094;-68
2022/12/27 02:17:14;;;;;;;5.68;1.15;;;3.70;99.90;;;;;;5111210;27;20039;-68
2022/12/27 02:19:40;;;;;;;7.47;0.93;;;3.60;99.90;;;;;;5104587;28;20413;-69
2022/12/27 02:24:01;;;;;;;3.55;0.70;;;3.60;99.90;;;;;;5116832;28;20035;-68
2022/12/27 02:25:54;;;;;;;3.38;0.73;;;3.60;99.90;;;;;;5103722;28;20047;-68
2022/12/27 02:28:32;;;;;;;4.90;0.60;;;3.40;99.90;;;;;;5105941;28;20043;-68
2022/12/27 02:31:05;;;;;;;9.85;0.95;;;3.30;99.90;;;;;;5100476;28;20024;-67
2022/12/27 02:33:37;;;;;;;9.63;1.42;;;3.30;99.90;;;;;;5101320;27;20019;-67
2022/12/27 02:36:08;;;;;;;7.15;0.95;;;3.40;99.90;;;;;;5098005;28;20465;-68
2022/12/27 02:38:43;;;;;;;8.70;0.90;;;3.50;99.90;;;;;;5109431;28;20039;-68
2022/12/27 02:55:35;;;;;;;5.22;0.93;;;4.30;99.90;;;;;;5116247;28;20456;-67
2022/12/27 02:58:20;;;;;;;6.85;1.08;;;4.40;99.90;;;;;;5111685;28;20490;-68
2022/12/27 03:04:22;;;;;;;9.90;1.00;;;4.40;99.90;;;;;;5105963;28;20378;-68
2022/12/27 03:07:04;;;;;;;4.22;0.70;;;4.50;99.90;;;;;;5109704;28;20039;-68
2022/12/27 03:15:58;;;;;;;8.70;1.88;;;4.50;99.90;;;;;;5107989;28;20043;-68
2022/12/27 03:18:27;;;;;;;9.15;1.17;;;4.50;99.90;;;;;;5097894;28;20049;-68
2022/12/27 03:26:29;;;;;;;10.82;0.90;;;4.40;99.90;;;;;;5117631;28;20073;-67
2022/12/27 03:34:39;;;;;;;6.07;0.82;;;4.20;99.90;;;;;;5115869;27;20038;-67
2022/12/27 03:40:37;;;;;;;7.32;1.05;;;4.20;99.90;;;;;;5113974;27;20034;-68
2022/12/27 03:43:14;;;;;;;14.07;1.67;;;4.40;99.90;;;;;;5027833;28;20048;-67
2022/12/27 03:49:28;;;;;;;9.07;1.40;;;4.20;99.90;;;;;;5031545;28;20049;-67
2022/12/27 03:52:25;;;;;;;15.30;1.48;;;4.10;99.90;;;;;;5027672;28;20549;-67
2022/12/27 03:54:55;;;;;;;7.35;0.85;;;4.20;99.90;;;;;;5031492;28;20029;-68
2022/12/27 03:57:24;;;;;;;3.55;0.77;;;4.30;99.90;;;;;;5015748;28;20025;-68
2022/12/27 03:59:49;;;;;;;9.88;1.17;;;4.30;99.90;;;;;;5038642;28;20033;-67
2022/12/27 04:02:15;;;;;;;6.97;0.77;;;4.30;99.90;;;;;;5037637;28;20029;-66
2022/12/27 04:04:41;;;;;;;11.10;1.20;;;4.20;99.90;;;;;;5028065;28;20124;-67
2022/12/27 04:07:07;;;;;;;7.72;0.93;;;4.30;99.90;;;;;;5040718;28;20505;-67
2022/12/27 04:36:55;;;;;;;3.53;0.63;;;4.60;99.90;;;;;;5071816;28;20977;-68
2022/12/27 04:39:21;;;;;;;7.25;1.08;;;4.60;99.90;;;;;;5072427;28;20020;-68
2022/12/27 04:55:41;;;;;;;8.02;0.80;;;4.70;99.90;;;;;;5075780;28;20087;-66
2022/12/27 04:58:06;;;;;;;6.20;0.68;;;4.60;99.90;;;;;;5079880;28;20032;-67
2022/12/27 05:03:21;;;;;;;4.68;0.88;;;4.50;99.90;;;;;;5058667;28;20403;-68
2022/12/27 05:05:48;;;;;;;13.27;1.00;;;4.50;99.90;;;;;;5066813;28;20131;-68
2022/12/27 05:14:01;;;;;;;9.10;1.00;;;4.50;99.90;;;;;;5079979;28;20557;-68
2022/12/27 05:16:44;;;;;;;9.63;0.90;;;4.60;99.90;;;;;;5066900;28;20055;-69
2022/12/27 05:19:12;;;;;;;5.03;0.57;;;4.60;99.90;;;;;;5066240;28;20119;-67
2022/12/27 05:27:11;;;;;;;4.57;0.73;;;4.50;99.90;;;;;;5077477;28;20090;-67
2022/12/27 05:29:37;;;;;;;6.47;0.80;;;4.50;99.90;;;;;;5079854;28;20024;-68
2022/12/27 05:32:02;;;;;;;8.10;1.00;;;4.50;99.90;;;;;;5071216;28;20082;-68
2022/12/27 05:34:28;;;;;;;3.58;1.00;;;4.40;99.90;;;;;;5070812;28;20024;-67
2022/12/27 05:36:54;;;;;;;5.78;0.85;;;4.30;99.90;;;;;;5056683;28;20082;-67
2022/12/27 05:39:19;;;;;;;6.50;1.05;;;4.50;99.90;;;;;;5076845;28;20030;-68
2022/12/27 05:41:45;;;;;;;8.27;0.75;;;4.50;99.90;;;;;;5077761;28;20055;-68
2022/12/27 05:44:11;;;;;;;5.50;0.95;;;4.40;99.90;;;;;;5072175;28;20055;-68
2022/12/27 05:46:36;;;;;;;7.63;0.88;;;4.30;99.90;;;;;;5074675;28;20065;-68
2022/12/27 05:49:02;;;;;;;5.72;0.70;;;4.20;99.90;;;;;;5069048;28;20493;-67
2022/12/27 05:51:28;;;;;;;5.45;0.63;;;4.20;99.90;;;;;;5071291;28;20342;-68
2022/12/27 05:53:53;;;;;;;5.53;1.48;;;4.20;99.90;;;;;;5069237;28;20046;-66
2022/12/27 05:56:20;;;;;;;9.75;0.88;;;4.30;99.90;;;;;;5060912;28;20389;-67
2022/12/27 05:58:47;;;;;;;7.00;0.93;;;4.40;99.90;;;;;;5060928;28;20111;-68
2022/12/27 06:01:15;;;;;;;7.13;0.93;;;4.60;99.90;;;;;;5060856;28;20033;-68
2022/12/27 06:03:41;;;;;;;12.60;0.77;;;4.70;99.90;;;;;;5079165;28;20528;-68
2022/12/27 06:06:07;;;;;;;11.40;1.08;;;4.70;99.90;;;;;;5087260;28;20127;-66
2022/12/27 06:08:33;;;;;;;7.25;1.08;;;4.70;99.90;;;;;;5110189;28;20144;-68
2022/12/27 06:11:09;;;;;;;7.22;0.93;;;4.70;99.90;;;;;;5103289;28;20495;-68
2022/12/27 06:13:36;;;;;;;4.55;1.00;;;4.70;99.90;;;;;;5082644;28;20369;-67
2022/12/27 06:16:04;;;;;;;8.85;0.98;;;4.70;99.90;;;;;;5096076;28;20040;-67
2022/12/27 06:18:31;;;;;;;6.30;1.02;;;4.80;99.90;;;;;;5106665;28;20039;-67
2022/12/27 06:21:05;;;;;;;4.97;0.60;;;4.80;99.90;;;;;;5107249;28;20031;-69
2022/12/27 06:23:33;;;;;;;5.82;0.90;;;4.80;99.90;;;;;;5110006;28;20089;-68
2022/12/27 06:26:07;;;;;;;6.72;0.70;;;4.70;99.90;;;;;;5106755;28;20122;-68
2022/12/27 06:28:33;;;;;;;3.15;0.63;;;4.40;99.90;;;;;;5107587;28;20027;-67
2022/12/27 06:31:00;;;;;;;5.85;0.70;;;4.00;99.90;;;;;;5107377;28;20031;-68
2022/12/27 06:33:26;;;;;;;3.13;0.57;;;3.90;99.90;;;;;;5110184;28;20161;-68
2022/12/27 06:35:52;;;;;;;11.68;0.85;;;3.70;99.90;;;;;;5103612;28;20032;-70
2022/12/27 06:38:18;;;;;;;6.22;0.98;;;3.90;99.90;;;;;;5095607;28;20046;-68
2022/12/27 06:40:44;;;;;;;6.32;1.00;;;3.90;99.90;;;;;;5103997;28;20497;-68
2022/12/27 06:43:09;;;;;;;8.13;0.70;;;3.70;99.90;;;;;;5090677;28;20051;-68
2022/12/27 06:45:35;;;;;;;7.35;0.70;;;3.50;99.90;;;;;;5087842;28;20400;-67
2022/12/27 06:48:01;;;;;;;5.40;0.55;;;3.50;99.90;;;;;;5102455;28;20020;-67
2022/12/27 06:50:27;;;;;;;3.72;0.52;;;3.60;99.90;;;;;;5108404;28;20024;-68
2022/12/27 06:52:52;;;;;;;2.30;0.50;;;3.60;99.90;;;;;;5106835;28;20030;-67
2022/12/27 06:55:18;;;;;;;9.90;0.80;;;3.60;99.90;;;;;;5109328;28;20054;-68
2022/12/27 06:57:44;;;;;;;6.88;0.80;;;3.70;99.90;;;;;;5107904;28;20068;-68
2022/12/27 07:00:12;;;;;;;4.90;1.15;;;3.70;99.90;;;;;;5110685;28;20031;-67
2022/12/27 07:02:38;;;;;;;11.88;1.23;;;3.60;99.90;;;;;;5106245;28;20483;-67
2022/12/27 07:05:04;;;;;;;10.48;1.27;;;3.80;99.90;;;;;;5091416;28;20058;-68
2022/12/27 07:07:30;;;;;;;5.80;1.60;;;3.90;99.90;;;;;;5109900;28;20118;-68
2022/12/27 07:09:55;;;;;;;7.18;1.20;;;4.00;99.90;;;;;;5103526;28;20531;-68
2022/12/27 07:12:21;;;;;;;7.75;0.95;;;4.10;99.90;;;;;;5108759;27;20030;-67
2022/12/27 07:14:47;;;;;;;4.88;1.10;;;4.00;99.90;;;;;;5110771;28;20027;-68
2022/12/27 07:17:12;;;;;;;5.15;0.73;;;4.10;99.90;;;;;;5114320;27;20243;-67
2022/12/27 07:19:39;;;;;;;4.90;0.80;;;4.00;99.90;;;;;;5113065;27;20024;-67
2022/12/27 07:22:04;;;;;;;8.60;0.88;;;3.90;99.90;;;;;;5113970;27;20480;-68
2022/12/27 07:24:32;;;;;;;4.00;0.70;;;3.90;99.90;;;;;;5110455;27;20051;-67
2022/12/27 07:26:59;;;;;;;4.78;0.55;;;4.00;99.90;;;;;;5104040;28;20035;-68
2022/12/27 07:29:26;;;;;;;4.65;1.23;;;4.10;99.90;;;;;;5116074;27;20106;-69
2022/12/27 07:31:52;;;;;;;9.45;0.77;;;4.10;99.90;;;;;;5118037;27;20031;-69
2022/12/27 07:34:17;;;;;;;5.75;1.13;;;4.10;99.90;;;;;;5109224;27;20035;-68
2022/12/27 07:36:43;;;;;;;5.25;0.73;;;4.20;99.90;;;;;;5105945;28;20043;-68
2022/12/27 07:39:09;;;;;;;2.78;0.68;;;4.20;99.90;;;;;;5108981;27;20027;-68
2022/12/27 07:41:35;;;;;;;5.65;1.33;;;4.40;99.90;;;;;;5123362;27;20405;-68
2022/12/27 07:44:01;;;;;;;5.28;0.90;;;4.60;99.90;;;;;;5106938;27;20063;-68
2022/12/27 07:46:27;;;;;;;10.27;1.10;;;4.70;99.90;;;;;;5113174;28;20031;-68
2022/12/27 07:48:57;;;;;;;8.40;0.98;;;4.60;99.90;;;;;;5114739;27;20020;-67
2022/12/27 07:51:23;;;;;;;3.65;1.08;;;4.60;99.90;;;;;;5109055;27;20032;-67
2022/12/27 07:53:50;;;;;;;6.90;1.73;;;4.70;99.90;;;;;;5106513;28;20106;-68
2022/12/27 07:56:18;;;;;;;9.13;1.90;;;4.70;99.90;;;;;;5107618;28;20082;-68
2022/12/27 07:58:46;;;;;;;9.13;0.98;;;4.80;99.90;;;;;;5108753;28;20487;-68
2022/12/27 08:01:13;;;;;;;4.45;0.70;;;4.70;99.90;;;;;;5110799;27;20085;-67
2022/12/27 08:03:39;;;;;;;7.82;0.95;;;4.80;99.90;;;;;;5089928;28;20019;-68
2022/12/27 08:06:06;;;;;;;5.05;0.60;;;5.20;99.90;;;;;;5104205;28;20042;-69
2022/12/27 08:08:41;;;;;;;3.90;0.77;;;5.30;99.90;;;;;;5114958;27;20023;-68
2022/12/27 08:11:07;;;;;;;4.85;0.85;;;5.30;99.90;;;;;;5109372;27;20027;-67
2022/12/27 08:13:34;;;;;;;6.32;0.82;;;5.30;99.90;;;;;;5112794;27;20027;-69
2022/12/27 08:15:59;;;;;;;3.67;0.70;;;5.30;99.90;;;;;;5109657;28;20065;-67
2022/12/27 08:18:25;;;;;;;5.68;0.80;;;5.30;99.90;;;;;;5106965;28;20028;-68
2022/12/27 08:20:51;;;;;;;4.72;1.10;;;5.20;99.90;;;;;;5109090;27;20379;-69
2022/12/27 08:23:17;;;;;;;4.97;0.75;;;5.20;99.90;;;;;;5110890;27;20016;-68
2022/12/27 08:25:44;;;;;;;6.90;0.82;;;5.30;99.90;;;;;;5105171;28;20471;-68
2022/12/27 08:28:12;;;;;;;5.10;0.90;;;5.60;99.90;;;;;;5112877;27;20378;-68
2022/12/27 08:30:39;;;;;;;4.85;0.65;;;5.80;99.90;;;;;;5104378;28;20115;-68
2022/12/27 08:33:04;;;;;;;6.90;0.80;;;5.90;99.90;;;;;;5100513;28;20354;-68
2022/12/27 08:35:30;;;;;;;6.82;1.15;;;6.00;99.90;;;;;;5108965;28;20126;-67
2022/12/27 08:37:56;;;;;;;5.28;0.82;;;6.00;99.90;;;;;;5103865;28;20574;-70
2022/12/27 08:40:21;;;;;;;6.75;2.03;;;6.10;99.90;;;;;;5106896;27;20031;-68
2022/12/27 08:42:47;;;;;;;10.40;1.08;;;6.30;99.90;;;;;;5105126;27;20058;-67
2022/12/27 08:45:13;;;;;;;5.30;0.70;;;6.40;99.90;;;;;;5112765;27;20453;-69
2022/12/27 08:48:01;;;;;;;13.38;2.88;;;6.60;99.90;;;;;;5110327;27;20438;-68
2022/12/27 08:50:27;;;;;;;6.32;1.25;;;6.80;99.90;;;;;;5111523;27;20088;-68
2022/12/27 08:52:56;;;;;;;8.70;1.23;;;7.00;99.90;;;;;;5098400;27;20020;-67
2022/12/27 08:55:22;;;;;;;11.88;1.75;;;7.10;99.90;;;;;;5107225;28;20454;-69
2022/12/27 08:57:48;;;;;;;5.75;0.93;;;7.20;99.90;;;;;;5104695;28;20023;-68
2022/12/27 09:00:14;;;;;;;6.50;1.65;;;7.20;99.90;;;;;;5112094;28;20474;-67
2022/12/27 09:02:39;;;;;;;6.40;1.00;;;7.30;99.90;;;;;;5099984;28;20024;-66
2022/12/27 09:05:05;;;;;;;2.38;0.65;;;7.30;99.90;;;;;;5107794;28;20077;-67
2022/12/27 09:07:31;;;;;;;14.43;1.27;;;7.40;99.90;;;;;;5111761;28;20190;-67
2022/12/27 09:09:57;;;;;;;8.18;1.15;;;7.50;99.90;;;;;;5106947;28;20067;-68
2022/12/27 09:12:23;;;;;;;17.10;1.83;;;7.60;99.90;;;;;;5108481;28;20024;-67
2022/12/27 09:14:48;;;;;;;10.93;1.75;;;7.70;99.90;;;;;;5107595;28;20113;-68
2022/12/27 09:17:14;;;;;;;5.97;1.10;;;7.80;99.90;;;;;;5111679;28;20042;-68
2022/12/27 09:19:39;;;;;;;6.88;0.85;;;7.90;99.90;;;;;;5109174;28;20028;-67
2022/12/27 09:22:05;;;;;;;8.57;0.80;;;7.90;99.90;;;;;;5106785;28;20089;-68
2022/12/27 09:24:31;;;;;;;9.15;1.65;;;8.00;99.90;;;;;;5104274;28;20026;-68
2022/12/27 09:26:56;;;;;;;8.73;1.55;;;8.00;99.90;;;;;;5102050;28;20055;-68
2022/12/27 09:29:22;;;;;;;5.55;0.90;;;8.10;99.90;;;;;;5110991;28;20057;-67
2022/12/27 09:31:47;;;;;;;7.47;1.00;;;8.20;99.90;;;;;;5108809;28;20042;-68
2022/12/27 09:34:13;;;;;;;7.07;0.60;;;8.30;99.90;;;;;;5100395;28;20089;-68
2022/12/27 09:36:39;;;;;;;7.53;1.00;;;8.40;99.90;;;;;;5103192;28;20411;-68
2022/12/27 09:39:05;;;;;;;7.05;0.73;;;8.40;99.90;;;;;;5110788;28;20031;-68
2022/12/27 09:41:48;;;;;;;7.13;0.70;;;8.30;99.90;;;;;;5110043;28;20028;-68
2022/12/27 09:45:02;;;;;;;5.55;0.73;;;8.30;99.90;;;;;;5104131;28;20115;-68
2022/12/27 09:47:33;;;;;;;7.18;0.80;;;8.30;99.90;;;;;;5076054;28;20035;-68
2022/12/27 09:50:16;;;;;;;5.97;0.60;;;8.30;99.90;;;;;;5108971;28;20038;-67
2022/12/27 09:53:08;;;;;;;4.05;0.90;;;8.30;99.90;;;;;;5106716;28;20024;-68
2022/12/27 09:55:41;;;;;;;;;;;8.30;99.90;;;;;;5099759;28;20082;-68
2022/12/27 09:58:27;;;;;;;6.32;0.50;;;8.30;99.90;;;;;;5083279;28;19907;-67
2022/12/27 10:00:53;;;;;;;11.68;1.40;;;8.40;99.90;;;;;;5100527;28;20544;-68
2022/12/27 10:03:24;;;;;;;8.38;1.00;;;8.40;99.90;;;;;;5110387;28;20028;-67
2022/12/27 10:05:58;;;;;;;8.05;0.98;;;8.40;99.90;;;;;;5102758;28;20143;-68
2022/12/27 10:08:40;;;;;;;4.20;1.00;;;8.50;99.90;;;;;;5101229;28;20591;-67
2022/12/27 10:11:37;;;;;;;4.68;0.52;;;8.50;99.90;;;;;;5100094;28;20127;-68
2022/12/27 10:14:37;;;;;;;6.35;0.57;;;8.60;99.90;;;;;;5105198;28;20063;-67
2022/12/27 10:17:20;;;;;;;5.22;0.45;;;8.60;99.90;;;;;;5101674;28;20483;-67
2022/12/27 10:20:03;;;;;;;6.32;0.52;;;8.70;99.90;;;;;;5102115;28;20080;-68
2022/12/27 10:22:34;;;;;;;7.28;1.17;;;8.70;99.90;;;;;;5109446;28;20118;-71
2022/12/27 10:25:05;;;;;;;3.57;0.80;;;8.70;99.90;;;;;;5105896;28;20479;-71
2022/12/27 10:27:30;;;;;;;9.50;1.05;;;8.70;99.90;;;;;;5109368;28;20271;-68
2022/12/27 10:29:58;;;;;;;7.00;1.00;;;8.70;99.90;;;;;;5102870;28;20028;-69
2022/12/27 10:32:25;;;;;;;4.45;0.70;;;8.80;99.90;;;;;;5110341;28;20387;-68
2022/12/27 10:35:01;;;;;;;4.75;0.52;;;8.80;99.90;;;;;;5106440;28;20494;-69
2022/12/27 10:37:27;;;;;;;4.80;0.90;;;8.80;99.90;;;;;;5105196;28;20034;-68
2022/12/27 10:39:54;;;;;;;8.90;1.10;;;8.80;99.90;;;;;;5107703;28;20027;-69
2022/12/27 10:42:25;;;;;;;17.30;2.35;;;8.90;99.90;;;;;;5089592;28;20107;-68
2022/12/27 10:44:54;;;;;;;7.78;1.20;;;8.80;99.90;;;;;;5095527;28;20082;-68
2022/12/27 10:47:28;;;;;;;5.22;0.95;;;8.90;99.90;;;;;;5097323;28;20081;-69
2022/12/27 10:50:09;;;;;;;3.75;0.63;;;8.90;99.90;;;;;;5094308;28;20415;-71
2022/12/27 10:52:34;;;;;;;10.25;0.93;;;9.10;99.90;;;;;;5118717;27;20039;-70
2022/12/27 10:55:00;;;;;;;15.32;2.30;;;9.20;99.90;;;;;;5113415;28;20503;-69
2022/12/27 10:57:33;;;;;;;6.80;1.00;;;9.30;99.90;;;;;;5108830;28;20055;-68
2022/12/27 11:00:18;;;;;;;6.72;1.67;;;9.50;99.90;;;;;;5111286;27;20026;-69
2022/12/27 11:02:52;;;;;;;8.30;1.73;;;9.70;99.90;;;;;;5111037;28;20035;-67
2022/12/27 11:05:27;;;;;;;8.70;1.73;;;9.70;99.90;;;;;;5114351;28;20104;-69
2022/12/27 11:07:53;;;;;;;19.65;2.75;;;9.70;99.90;;;;;;5108678;28;20031;-69
2022/12/27 11:10:25;;;;;;;10.00;2.35;;;9.70;99.90;;;;;;5114295;28;20027;-68
2022/12/27 11:12:56;;;;;;;6.80;2.10;;;9.90;99.90;;;;;;5107485;27;20104;-68
2022/12/27 11:15:22;;;;;;;12.82;2.20;;;10.20;99.90;;;;;;5115200;28;20085;-68
2022/12/27 11:17:52;;;;;;;9.85;1.67;;;10.30;99.90;;;;;;5114086;28;20455;-67
2022/12/27 11:20:28;;;;;;;17.15;1.90;;;10.50;99.90;;;;;;5107729;28;20024;-67
2022/12/27 11:23:09;;;;;;;7.65;1.50;;;10.60;99.90;;;;;;5099399;28;20060;-69
2022/12/27 11:25:49;;;;;;;9.10;2.15;;;10.50;99.90;;;;;;5122461;27;20447;-69
2022/12/27 11:28:37;;;;;;;7.00;1.85;;;10.30;99.90;;;;;;5107725;28;20368;-68
2022/12/27 11:31:09;;;;;;;6.22;1.83;;;10.20;99.90;;;;;;5108092;28;20364;-68
2022/12/27 11:33:38;;;;;;;8.45;1.25;;;10.10;99.90;;;;;;5115979;28;20038;-68
2022/12/27 11:36:05;;;;;;;5.22;1.25;;;10.20;99.90;;;;;;5116249;28;20036;-69
2022/12/27 11:38:33;;;;;;;9.90;1.27;;;10.30;99.90;;;;;;5115364;27;20023;-68
2022/12/27 11:41:04;;;;;;;8.43;1.05;;;10.40;99.90;;;;;;5111884;28;20104;-67
2022/12/27 11:43:46;;;;;;;8.77;1.90;;;10.60;99.90;;;;;;5115590;28;20036;-68
2022/12/27 11:46:34;;;;;;;6.63;1.20;;;10.70;99.90;;;;;;5116073;28;20118;-67
2022/12/27 11:49:03;;;;;;;9.35;1.67;;;10.80;99.90;;;;;;5057402;28;20279;-67
2022/12/27 11:51:45;;;;;;;7.10;0.98;;;11.00;99.90;;;;;;5113699;28;20039;-67
2022/12/27 11:54:45;;;;;;;6.78;0.85;;;11.50;99.90;;;;;;5115587;28;20066;-66
2022/12/27 11:57:24;;;;;;;7.28;1.63;;;11.90;99.90;;;;;;5095688;28;20109;-68
2022/12/27 11:59:55;;;;;;;4.25;0.70;;;11.80;99.90;;;;;;5108685;28;20476;-67
2022/12/27 12:02:23;;;;;;;9.27;1.83;;;11.90;99.90;;;;;;5112716;28;20024;-68
2022/12/27 12:05:14;;;;;;;7.18;1.27;;;12.30;99.90;;;;;;5110744;28;20031;-66
2022/12/27 12:08:14;;;;;;;8.80;1.67;;;12.50;99.90;;;;;;5110594;28;20116;-68
2022/12/27 12:10:48;;;;;;;7.22;1.27;;;12.60;99.90;;;;;;5109180;28;20440;-67
2022/12/27 12:13:23;;;;;;;9.07;1.60;;;12.90;99.90;;;;;;5109645;28;20051;-67
2022/12/27 12:16:26;;;;;;;8.45;1.08;;;12.90;99.90;;;;;;5110313;28;20035;-67
2022/12/27 12:19:19;;;;;;;7.25;1.58;;;12.70;99.90;;;;;;5007945;28;20045;-67
2022/12/27 12:22:06;;;;;;;9.98;2.28;;;12.40;99.90;;;;;;5004629;28;20473;-66
2022/12/27 12:24:44;;;;;;;7.85;2.30;;;12.10;99.90;;;;;;5001460;28;20117;-67
2022/12/27 12:27:28;;;;;;;5.82;1.65;;;11.60;99.90;;;;;;5009065;28;20037;-66
2022/12/27 12:30:22;;;;;;;8.02;1.60;;;11.30;99.90;;;;;;5001827;28;20023;-67
2022/12/27 12:33:15;;;;;;;21.85;2.90;;;11.00;99.90;;;;;;4998192;28;20152;-67
2022/12/27 12:35:55;;;;;;;10.68;1.55;;;10.90;99.90;;;;;;4996491;28;20165;-67
2022/12/27 12:38:48;;;;;;;8.95;1.70;;;10.70;99.90;;;;;;4998535;28;20034;-67
2022/12/27 12:41:25;;;;;;;13.15;1.77;;;10.70;99.90;;;;;;4998286;28;20045;-67
2022/12/27 12:44:24;;;;;;;12.20;2.10;;;10.80;99.90;;;;;;4999393;28;20583;-67
2022/12/27 12:47:08;;;;;;;11.43;1.52;;;10.80;99.90;;;;;;4997653;28;20072;-68
2022/12/27 12:49:51;;;;;;;10.48;2.42;;;10.80;99.90;;;;;;4996763;28;20030;-68
2022/12/27 12:52:38;;;;;;;11.18;1.00;;;11.00;99.90;;;;;;5027218;28;20399;-68
2022/12/27 12:55:22;;;;;;;10.45;2.40;;;11.30;99.90;;;;;;5103440;28;20038;-68
2022/12/27 12:58:06;;;;;;;9.85;2.28;;;11.40;99.90;;;;;;5098011;28;20036;-67
2022/12/27 13:00:53;;;;;;;12.07;1.92;;;11.60;99.90;;;;;;5105191;28;20028;-68
2022/12/27 13:03:56;;;;;;;8.75;1.60;;;11.70;99.90;;;;;;5105104;28;20039;-67
2022/12/27 13:06:45;;;;;;;8.00;1.95;;;11.80;99.90;;;;;;5107905;28;20138;-68
2022/12/27 13:09:16;;;;;;;8.43;2.05;;;11.50;99.90;;;;;;5101752;28;20020;-66
2022/12/27 13:12:03;;;;;;;8.52;1.75;;;11.30;99.90;;;;;;5108542;28;20382;-68
2022/12/27 13:14:49;;;;;;;8.50;1.30;;;11.20;99.90;;;;;;5099368;28;20032;-67
2022/12/27 13:17:30;;;;;;;10.55;1.83;;;11.10;99.90;;;;;;5104410;28;20031;-68
2022/12/27 13:20:17;;;;;;;7.55;2.50;;;11.20;99.90;;;;;;5102138;28;20035;-68
2022/12/27 13:23:09;;;;;;;9.70;1.77;;;11.20;99.90;;;;;;5100411;28;20054;-68
2022/12/27 13:25:50;;;;;;;;;;;11.10;99.90;;;;;;5096952;28;20024;-67
2022/12/27 13:28:46;;;;;;;10.48;2.05;;;11.00;99.90;;;;;;5104410;28;19974;-68
2022/12/27 13:31:17;;;;;;;12.52;1.83;;;11.10;99.90;;;;;;5101233;28;20020;-69
2022/12/27 13:34:09;;;;;;;10.95;1.75;;;11.10;99.90;;;;;;5095597;28;20383;-69
2022/12/27 13:36:53;;;;;;;15.27;2.53;;;11.20;99.90;;;;;;5103915;28;20104;-70
2022/12/27 13:39:46;;;;;;;10.88;2.38;;;11.10;99.90;;;;;;5095255;28;20060;-72
2022/12/27 13:42:50;;;;;;;8.52;1.52;;;11.20;99.90;;;;;;5101734;28;20120;-70
2022/12/27 13:45:35;;;;;;;18.52;2.25;;;11.20;99.90;;;;;;5099717;28;20483;-72
2022/12/27 13:48:30;;;;;;;12.57;1.63;;;11.10;99.90;;;;;;5096574;28;20088;-72
2022/12/27 13:51:20;;;;;;;8.18;1.77;;;11.00;99.90;;;;;;5081203;28;20042;-74
2022/12/27 13:54:18;;;;;;;8.40;1.63;;;10.90;99.90;;;;;;5077961;28;20039;-77
2022/12/27 13:57:20;;;;;;;10.55;2.33;;;10.80;99.90;;;;;;5079820;28;20035;-76
2022/12/27 14:00:07;;;;;;;7.07;1.88;;;10.80;99.90;;;;;;5098271;28;20028;-76
2022/12/27 14:02:36;;;;;;;12.18;2.17;;;10.80;99.90;;;;;;5103028;28;20028;-73
2022/12/27 14:05:04;;;;;;;167.77;70.75;;;10.90;99.90;;;;;;5079533;28;20027;-77
2022/12/27 14:08:07;;;;;;;11.38;2.50;;;10.80;99.90;;;;;;5102245;28;20036;-76
2022/12/27 14:10:48;;;;;;;10.48;1.90;;;10.80;99.90;;;;;;5098703;28;20028;-70
2022/12/27 14:13:36;;;;;;;8.27;1.63;;;10.80;99.90;;;;;;5102898;28;20026;-71
2022/12/27 14:16:39;;;;;;;8.73;2.20;;;10.90;99.90;;;;;;5091508;28;20039;-72
2022/12/27 14:19:47;;;;;;;9.95;1.23;;;11.10;99.90;;;;;;5098808;28;20092;-71
2022/12/27 14:22:31;;;;;;;6.03;1.42;;;10.90;99.90;;;;;;5082126;28;20584;-71
2022/12/27 14:25:34;;;;;;;7.72;1.35;;;10.80;99.90;;;;;;5099437;28;20027;-70
2022/12/27 14:28:20;;;;;;;9.98;1.90;;;10.80;99.90;;;;;;5105446;28;20121;-69
2022/12/27 14:31:19;;;;;;;8.30;2.08;;;10.80;99.90;;;;;;5106932;27;20133;-71
2022/12/27 14:33:56;;;;;;;14.43;1.58;;;10.80;99.90;;;;;;5105815;28;20028;-71
2022/12/27 14:36:43;;;;;;;6.63;1.10;;;10.80;99.90;;;;;;5104818;28;20043;-72
2022/12/27 14:39:35;;;;;;;4.15;1.55;;;10.90;99.90;;;;;;5100980;28;20036;-71
2022/12/27 14:42:17;;;;;;;8.38;1.08;;;10.90;99.90;;;;;;5098449;28;20502;-71
2022/12/27 14:45:01;;;;;;;8.63;1.45;;;11.00;99.90;;;;;;5106406;28;20032;-71
2022/12/27 14:47:44;;;;;;;7.57;1.10;;;10.90;99.90;;;;;;5115537;28;20055;-73
2022/12/27 14:50:29;;;;;;;9.50;1.92;;;10.80;99.90;;;;;;5106529;28;20047;-69
2022/12/27 14:52:57;;;;;;;16.42;1.92;;;10.70;99.90;;;;;;5107841;28;20050;-75
2022/12/27 14:55:35;;;;;;;7.18;1.00;;;10.70;99.90;;;;;;5090313;28;20062;-76
2022/12/27 14:58:01;;;;;;;9.40;1.38;;;10.60;99.90;;;;;;5109858;28;20479;-76
2022/12/27 15:00:43;;;;;;;10.65;1.70;;;10.60;99.90;;;;;;5109388;28;20039;-74
2022/12/27 15:03:20;;;;;;;13.45;1.42;;;10.60;99.90;;;;;;5099631;28;20024;-77
2022/12/27 15:06:00;;;;;;;8.48;2.10;;;10.60;99.90;;;;;;5112304;28;20052;-75